Time;durP1;ratioP1;P1;durP2;ratioP2;P2;SDS_P1;SDS_P2;PMS_P1;PMS_P2;Temp;Humidity;BMP_temperature;BMP_pressure;BME280_temperature;BME280_humidity;BME280_pressure;Samples;Min_cycle;Max_cycle;Signal;HPM_P1;HPM_P2
2023/10/30 00:01:18;;;;;;;;;;;;;;;;;;6117630;23;19924;-88
2023/10/30 00:03:44;;;;;;;;;;;;;;;;;;6116315;23;19917;-86
2023/10/30 00:06:11;;;;;;;;;;;;;;;;;;6119168;23;19936;-86
2023/10/30 00:08:37;;;;;;;;;;;;;;;;;;6116477;23;19925;-86
2023/10/30 00:11:02;;;;;;;;;;;;;;;;;;6090205;23;20266;-86
2023/10/30 00:13:28;;;;;;;;;;;;;;;;;;6092026;23;19917;-86
2023/10/30 00:15:55;;;;;;;;;;;;;;;;;;6091645;23;19920;-86
2023/10/30 00:18:21;;;;;;;;;;;;;;;;;;6117681;23;20044;-86
2023/10/30 00:20:47;;;;;;;;;;;;;;;;;;6115181;23;19968;-86
2023/10/30 00:23:12;;;;;;;;;;;;;;;;;;6117997;23;19921;-86
2023/10/30 00:25:38;;;;;;;;;;;;;;;;;;6092255;23;19920;-86
2023/10/30 00:28:05;;;;;;;;;;;;;;;;;;6096451;23;19924;-85
2023/10/30 00:30:31;;;;;;;;;;;;;;;;;;6128718;23;19920;-86
2023/10/30 00:32:57;;;;;;;;;;;;;;;;;;6117198;23;20353;-86
2023/10/30 00:35:22;;;;;;;;;;;;;;;;;;6147121;23;19928;-86
2023/10/30 00:37:48;;;;;;;;;;;;;;;;;;6114808;23;19966;-86
2023/10/30 00:40:15;;;;;;;;;;;;;;;;;;6117909;23;19927;-86
2023/10/30 00:42:41;;;;;;;;;;;;;;;;;;6115531;23;19922;-86
2023/10/30 00:45:07;;;;;;;;;;;;;;;;;;6114919;23;19921;-86
2023/10/30 00:47:38;;;;;;;;;;;;;;;;;;6095334;23;20325;-86
2023/10/30 00:50:04;;;;;;;;;;;;;;;;;;6140117;23;20394;-86
2023/10/30 00:52:30;;;;;;;;;;;;;;;;;;6117029;23;19948;-86
2023/10/30 00:54:56;;;;;;;;;;;;;;;;;;6114037;23;19917;-86
2023/10/30 00:57:22;;;;;;;;;;;;;;;;;;6154700;23;19925;-86
2023/10/30 00:59:48;;;;;;;;;;;;;;;;;;6149442;23;20298;-86
2023/10/30 01:02:14;;;;;;;;;;;;;;;;;;6094393;23;19978;-86
2023/10/30 01:04:40;;;;;;;;;;;;;;;;;;6118009;23;19916;-86
2023/10/30 01:07:06;;;;;;;;;;;;;;;;;;6089808;23;20245;-86
2023/10/30 01:09:32;;;;;;;;;;;;;;;;;;6117599;23;19927;-86
2023/10/30 01:11:58;;;;;;;;;;;;;;;;;;6090696;23;19920;-86
2023/10/30 01:14:24;;;;;;;;;;;;;;;;;;6118183;23;20372;-86
2023/10/30 01:16:50;;;;;;;;;;;;;;;;;;6142032;23;20015;-86
2023/10/30 01:19:16;;;;;;;;;;;;;;;;;;6093895;23;19920;-86
2023/10/30 01:21:42;;;;;;;;;;;;;;;;;;6115027;23;20182;-88
2023/10/30 01:24:08;;;;;;;;;;;;;;;;;;6118099;23;20294;-88
2023/10/30 01:26:34;;;;;;;;;;;;;;;;;;6113847;23;20199;-88
2023/10/30 01:29:00;;;;;;;;;;;;;;;;;;6088848;23;19924;-88
2023/10/30 01:31:30;;;;;;;;;;;;;;;;;;6093188;23;20325;-88
2023/10/30 01:33:55;;;;;;;;;;;;;;;;;;6090604;23;19921;-88
2023/10/30 01:36:21;;;;;;;;;;;;;;;;;;6119093;23;19981;-88
2023/10/30 01:38:47;;;;;;;;;;;;;;;;;;6114994;23;20253;-88
2023/10/30 01:41:13;;;;;;;;;;;;;;;;;;6092997;23;19920;-88
2023/10/30 01:43:39;;;;;;;;;;;;;;;;;;6115646;23;20222;-88
2023/10/30 01:46:05;;;;;;;;;;;;;;;;;;6115551;23;19920;-88
2023/10/30 01:48:31;;;;;;;;;;;;;;;;;;6093672;23;20373;-88
2023/10/30 01:50:57;;;;;;;;;;;;;;;;;;6141946;23;19971;-88
2023/10/30 01:53:23;;;;;;;;;;;;;;;;;;6117320;23;19920;-88
2023/10/30 01:55:49;;;;;;;;;;;;;;;;;;6116720;23;19920;-89
2023/10/30 01:58:15;;;;;;;;;;;;;;;;;;6115684;23;19995;-88
2023/10/30 02:00:41;;;;;;;;;;;;;;;;;;6093906;23;19917;-88
2023/10/30 02:03:10;;;;;;;;;;;;;;;;;;6093011;23;19920;-88
2023/10/30 02:05:36;;;;;;;;;;;;;;;;;;6096424;23;19927;-88
2023/10/30 02:08:02;;;;;;;;;;;;;;;;;;6113605;23;20409;-88
2023/10/30 02:10:28;;;;;;;;;;;;;;;;;;6145294;23;19950;-88
2023/10/30 02:12:54;;;;;;;;;;;;;;;;;;6093408;23;20296;-88
2023/10/30 02:15:20;;;;;;;;;;;;;;;;;;6119975;23;19947;-88
2023/10/30 02:17:45;;;;;;;;;;;;;;;;;;6113484;23;19980;-88
2023/10/30 02:20:12;;;;;;;;;;;;;;;;;;6091529;23;19925;-89
2023/10/30 02:22:38;;;;;;;;;;;;;;;;;;6142013;23;19971;-88
2023/10/30 02:25:03;;;;;;;;;;;;;;;;;;6140969;23;19921;-88
2023/10/30 02:27:29;;;;;;;;;;;;;;;;;;6087927;23;19924;-88
2023/10/30 02:29:55;;;;;;;;;;;;;;;;;;6087204;23;19927;-88
2023/10/30 02:32:21;;;;;;;;;;;;;;;;;;6114116;23;19925;-88
2023/10/30 02:34:47;;;;;;;;;;;;;;;;;;6138027;23;19920;-89
2023/10/30 02:37:13;;;;;;;;;;;;;;;;;;6118820;23;19944;-89
2023/10/30 02:39:39;;;;;;;;;;;;;;;;;;6118584;23;19925;-89
2023/10/30 02:42:06;;;;;;;;;;;;;;;;;;6090201;23;19921;-89
2023/10/30 02:44:32;;;;;;;;;;;;;;;;;;6091854;23;19924;-89
2023/10/30 02:46:58;;;;;;;;;;;;;;;;;;6140889;23;20246;-89
2023/10/30 02:49:25;;;;;;;;;;;;;;;;;;6091050;23;20288;-88
2023/10/30 02:51:51;;;;;;;;;;;;;;;;;;6112128;23;19935;-88
2023/10/30 02:54:17;;;;;;;;;;;;;;;;;;6114652;23;20272;-86
2023/10/30 02:56:43;;;;;;;;;;;;;;;;;;6088194;23;19921;-85
2023/10/30 02:59:09;;;;;;;;;;;;;;;;;;6092342;23;19948;-86
2023/10/30 03:01:35;;;;;;;;;;;;;;;;;;6117825;23;19979;-86
2023/10/30 03:04:02;;;;;;;;;;;;;;;;;;6117180;23;20350;-86
2023/10/30 03:06:28;;;;;;;;;;;;;;;;;;6093066;23;19928;-86
2023/10/30 03:08:54;;;;;;;;;;;;;;;;;;6115094;23;19920;-86
2023/10/30 03:11:20;;;;;;;;;;;;;;;;;;6119738;23;19940;-87
2023/10/30 03:13:46;;;;;;;;;;;;;;;;;;6089973;23;19920;-87
2023/10/30 03:16:12;;;;;;;;;;;;;;;;;;6116189;23;20282;-86
2023/10/30 03:18:38;;;;;;;;;;;;;;;;;;6118330;23;20323;-86
2023/10/30 03:21:04;;;;;;;;;;;;;;;;;;6091607;23;20298;-86
2023/10/30 03:23:30;;;;;;;;;;;;;;;;;;6144138;23;19920;-86
2023/10/30 03:25:56;;;;;;;;;;;;;;;;;;6115426;23;20354;-86
2023/10/30 03:28:22;;;;;;;;;;;;;;;;;;6141944;23;19964;-85
2023/10/30 03:30:48;;;;;;;;;;;;;;;;;;6116477;23;19920;-86
2023/10/30 03:33:14;;;;;;;;;;;;;;;;;;6101472;23;19920;-86
2023/10/30 03:35:40;;;;;;;;;;;;;;;;;;6111826;23;19940;-85
2023/10/30 03:38:06;;;;;;;;;;;;;;;;;;6121362;23;19920;-86
2023/10/30 03:40:32;;;;;;;;;;;;;;;;;;6121494;23;20213;-86
2023/10/30 03:42:58;;;;;;;;;;;;;;;;;;6092564;23;19975;-86
2023/10/30 03:45:24;;;;;;;;;;;;;;;;;;6093687;23;19945;-86
2023/10/30 03:47:50;;;;;;;;;;;;;;;;;;6090141;23;19933;-86
2023/10/30 03:50:16;;;;;;;;;;;;;;;;;;6117148;23;19927;-86
2023/10/30 03:52:43;;;;;;;;;;;;;;;;;;6116302;23;19990;-87
2023/10/30 03:55:09;;;;;;;;;;;;;;;;;;6143064;23;19917;-87
2023/10/30 03:57:35;;;;;;;;;;;;;;;;;;6116451;23;19927;-86
2023/10/30 04:00:01;;;;;;;;;;;;;;;;;;6089505;23;19921;-86
2023/10/30 04:02:29;;;;;;;;;;;;;;;;;;6117788;23;19927;-86
2023/10/30 04:04:55;;;;;;;;;;;;;;;;;;6117232;23;19917;-86
2023/10/30 04:07:21;;;;;;;;;;;;;;;;;;6118671;23;19921;-87
2023/10/30 04:09:47;;;;;;;;;;;;;;;;;;6117116;23;20429;-86
2023/10/30 04:12:13;;;;;;;;;;;;;;;;;;6093171;23;20439;-86
2023/10/30 04:14:39;;;;;;;;;;;;;;;;;;6117838;23;19979;-86
2023/10/30 04:17:05;;;;;;;;;;;;;;;;;;6116869;23;20345;-86
2023/10/30 04:19:31;;;;;;;;;;;;;;;;;;6118863;23;19956;-86
2023/10/30 04:21:57;;;;;;;;;;;;;;;;;;6115608;23;20360;-86
2023/10/30 04:24:23;;;;;;;;;;;;;;;;;;6119234;23;20248;-89
2023/10/30 04:26:49;;;;;;;;;;;;;;;;;;6092552;23;20369;-86
2023/10/30 04:29:15;;;;;;;;;;;;;;;;;;6114727;23;20400;-86
2023/10/30 04:31:41;;;;;;;;;;;;;;;;;;6143678;23;19972;-86
2023/10/30 04:34:07;;;;;;;;;;;;;;;;;;6091138;23;19925;-86
2023/10/30 04:36:33;;;;;;;;;;;;;;;;;;6120460;23;19920;-86
2023/10/30 04:38:58;;;;;;;;;;;;;;;;;;6116009;23;20396;-86
2023/10/30 04:41:24;;;;;;;;;;;;;;;;;;6094366;23;19935;-86
2023/10/30 04:43:50;;;;;;;;;;;;;;;;;;6141078;23;19917;-85
2023/10/30 04:46:17;;;;;;;;;;;;;;;;;;6119674;23;19921;-86
2023/10/30 04:48:43;;;;;;;;;;;;;;;;;;6142184;23;20379;-87
2023/10/30 04:51:09;;;;;;;;;;;;;;;;;;6092699;23;19948;-86
2023/10/30 04:53:35;;;;;;;;;;;;;;;;;;6116239;23;19921;-86
2023/10/30 04:56:02;;;;;;;;;;;;;;;;;;6092137;23;20378;-86
2023/10/30 04:58:28;;;;;;;;;;;;;;;;;;6095455;23;19967;-86
2023/10/30 05:00:54;;;;;;;;;;;;;;;;;;6093348;23;19916;-86
2023/10/30 05:03:20;;;;;;;;;;;;;;;;;;6092443;23;19920;-87
2023/10/30 05:05:46;;;;;;;;;;;;;;;;;;6114141;23;19962;-87
2023/10/30 05:08:11;;;;;;;;;;;;;;;;;;6117799;23;19932;-86
2023/10/30 05:10:37;;;;;;;;;;;;;;;;;;6118524;23;19964;-86
2023/10/30 05:13:03;;;;;;;;;;;;;;;;;;6090434;23;19920;-87
2023/10/30 05:15:29;;;;;;;;;;;;;;;;;;6119336;23;20355;-87
2023/10/30 05:17:55;;;;;;;;;;;;;;;;;;6115061;23;19920;-88
2023/10/30 05:20:21;;;;;;;;;;;;;;;;;;6117829;23;19933;-87
2023/10/30 05:22:47;;;;;;;;;;;;;;;;;;6115417;23;19920;-87
2023/10/30 05:25:13;;;;;;;;;;;;;;;;;;6092673;23;19920;-86
2023/10/30 05:27:39;;;;;;;;;;;;;;;;;;6116511;23;19920;-87
2023/10/30 05:30:05;;;;;;;;;;;;;;;;;;6086963;23;20297;-87
2023/10/30 05:32:31;;;;;;;;;;;;;;;;;;6115570;23;20354;-86
2023/10/30 05:34:57;;;;;;;;;;;;;;;;;;6115199;23;19920;-87
2023/10/30 05:37:23;;;;;;;;;;;;;;;;;;6116168;23;19999;-86
2023/10/30 05:39:49;;;;;;;;;;;;;;;;;;6090241;23;19943;-87
2023/10/30 05:42:15;;;;;;;;;;;;;;;;;;6117419;23;19923;-87
2023/10/30 05:44:42;;;;;;;;;;;;;;;;;;6117895;23;19924;-87
2023/10/30 05:47:08;;;;;;;;;;;;;;;;;;6115998;23;20349;-87
2023/10/30 05:49:34;;;;;;;;;;;;;;;;;;6118711;23;19921;-87
2023/10/30 05:52:00;;;;;;;;;;;;;;;;;;6089659;23;19921;-87
2023/10/30 05:54:26;;;;;;;;;;;;;;;;;;6117330;23;19921;-87
2023/10/30 05:56:52;;;;;;;;;;;;;;;;;;6091081;23;20265;-86
2023/10/30 05:59:18;;;;;;;;;;;;;;;;;;6115958;23;19948;-87
2023/10/30 06:01:44;;;;;;;;;;;;;;;;;;6139849;23;19923;-89
2023/10/30 06:04:10;;;;;;;;;;;;;;;;;;6114360;23;19952;-86
2023/10/30 06:06:36;;;;;;;;;;;;;;;;;;6109994;23;20412;-87
2023/10/30 06:09:03;;;;;;;;;;;;;;;;;;6088045;23;20365;-86
2023/10/30 06:11:28;;;;;;;;;;;;;;;;;;6114703;23;20346;-86
2023/10/30 06:13:54;;;;;;;;;;;;;;;;;;6088385;23;19971;-87
2023/10/30 06:16:21;;;;;;;;;;;;;;;;;;6140461;23;19940;-86
2023/10/30 06:18:47;;;;;;;;;;;;;;;;;;6139341;23;19921;-87
2023/10/30 06:21:13;;;;;;;;;;;;;;;;;;6115363;23;19920;-87
2023/10/30 06:23:39;;;;;;;;;;;;;;;;;;6115396;23;19952;-86
2023/10/30 06:26:05;;;;;;;;;;;;;;;;;;6137507;23;19920;-87
2023/10/30 06:28:31;;;;;;;;;;;;;;;;;;6089137;23;19932;-86
2023/10/30 06:30:57;;;;;;;;;;;;;;;;;;6083870;23;19920;-87
2023/10/30 06:33:23;;;;;;;;;;;;;;;;;;6090788;23;19926;-87
2023/10/30 06:35:49;;;;;;;;;;;;;;;;;;6139434;23;19917;-87
2023/10/30 06:38:15;;;;;;;;;;;;;;;;;;6140472;23;19927;-87
2023/10/30 06:40:40;;;;;;;;;;;;;;;;;;6114174;23;20030;-87
2023/10/30 06:43:06;;;;;;;;;;;;;;;;;;6109059;23;19925;-87
2023/10/30 06:45:32;;;;;;;;;;;;;;;;;;6113971;23;20310;-87
2023/10/30 06:47:58;;;;;;;;;;;;;;;;;;6110891;23;19964;-87
2023/10/30 06:50:24;;;;;;;;;;;;;;;;;;6112846;23;20227;-87
2023/10/30 06:52:50;;;;;;;;;;;;;;;;;;6089451;23;19959;-87
2023/10/30 06:55:16;;;;;;;;;;;;;;;;;;6091558;23;19920;-87
2023/10/30 06:57:42;;;;;;;;;;;;;;;;;;6116242;23;20334;-88
2023/10/30 07:00:08;;;;;;;;;;;;;;;;;;6118326;23;19916;-87
2023/10/30 07:02:34;;;;;;;;;;;;;;;;;;6091088;23;19999;-87
2023/10/30 07:05:00;;;;;;;;;;;;;;;;;;6086863;23;19991;-87
2023/10/30 07:07:26;;;;;;;;;;;;;;;;;;6109590;23;19935;-87
2023/10/30 07:09:52;;;;;;;;;;;;;;;;;;6109418;23;19925;-88
2023/10/30 07:12:18;;;;;;;;;;;;;;;;;;6116851;23;19999;-87
2023/10/30 07:14:44;;;;;;;;;;;;;;;;;;6110883;23;19925;-87
2023/10/30 07:17:10;;;;;;;;;;;;;;;;;;6091714;23;19920;-87
2023/10/30 07:19:36;;;;;;;;;;;;;;;;;;6090858;23;19917;-87
2023/10/30 07:22:04;;;;;;;;;;;;;;;;;;6120559;23;19959;-88
2023/10/30 07:24:30;;;;;;;;;;;;;;;;;;6158854;23;19944;-87
2023/10/30 07:26:57;;;;;;;;;;;;;;;;;;6116283;23;19928;-87
2023/10/30 07:29:23;;;;;;;;;;;;;;;;;;6116810;23;20015;-87
2023/10/30 07:31:52;;;;;;;;;;;;;;;;;;6110241;23;19995;-87
2023/10/30 07:34:18;;;;;;;;;;;;;;;;;;6114257;23;19924;-87
2023/10/30 07:36:44;;;;;;;;;;;;;;;;;;6092746;23;19917;-88
2023/10/30 07:39:10;;;;;;;;;;;;;;;;;;6118961;23;20035;-87
2023/10/30 07:41:36;;;;;;;;;;;;;;;;;;6095104;23;20034;-87
2023/10/30 07:44:01;;;;;;;;;;;;;;;;;;6117411;23;19924;-88
2023/10/30 07:46:27;;;;;;;;;;;;;;;;;;6120827;23;19921;-87
2023/10/30 07:48:53;;;;;;;;;;;;;;;;;;6114732;23;19967;-88
2023/10/30 07:51:19;;;;;;;;;;;;;;;;;;6092283;23;19959;-87
2023/10/30 07:53:45;;;;;;;;;;;;;;;;;;6115546;23;20375;-88
2023/10/30 07:56:11;;;;;;;;;;;;;;;;;;6118870;23;19928;-87
2023/10/30 07:58:37;;;;;;;;;;;;;;;;;;6095478;23;20294;-87
2023/10/30 08:01:03;;;;;;;;;;;;;;;;;;6093157;23;20323;-88
2023/10/30 08:03:30;;;;;;;;;;;;;;;;;;6120045;23;20312;-87
2023/10/30 08:05:56;;;;;;;;;;;;;;;;;;6117962;23;19997;-87
2023/10/30 08:08:22;;;;;;;;;;;;;;;;;;6119816;23;19979;-88
2023/10/30 08:10:48;;;;;;;;;;;;;;;;;;6092906;23;20372;-87
2023/10/30 08:13:14;;;;;;;;;;;;;;;;;;6095633;23;20281;-87
2023/10/30 08:15:40;;;;;;;;;;;;;;;;;;6121421;23;19939;-87
2023/10/30 08:18:07;;;;;;;;;;;;;;;;;;6094173;23;19975;-87
2023/10/30 08:20:33;;;;;;;;;;;;;;;;;;6097338;23;19916;-87
2023/10/30 08:22:59;;;;;;;;;;;;;;;;;;6117154;23;19928;-88
2023/10/30 08:25:26;;;;;;;;;;;;;;;;;;6098038;23;19940;-88
2023/10/30 08:27:52;;;;;;;;;;;;;;;;;;6094244;23;20381;-87
2023/10/30 08:30:18;;;;;;;;;;;;;;;;;;6122930;23;19991;-87
2023/10/30 08:32:46;;;;;;;;;;;;;;;;;;6116226;23;20334;-87
2023/10/30 08:35:12;;;;;;;;;;;;;;;;;;6120637;23;19924;-87
2023/10/30 08:37:38;;;;;;;;;;;;;;;;;;6120590;23;19980;-87
2023/10/30 08:40:05;;;;;;;;;;;;;;;;;;6118508;23;19924;-87
2023/10/30 08:42:32;;;;;;;;;;;;;;;;;;6121653;23;19920;-87
2023/10/30 08:44:58;;;;;;;;;;;;;;;;;;6117588;23;20249;-88
2023/10/30 08:47:24;;;;;;;;;;;;;;;;;;6120768;23;19920;-87
2023/10/30 08:49:50;;;;;;;;;;;;;;;;;;6093819;23;20016;-87
2023/10/30 08:52:16;;;;;;;;;;;;;;;;;;6121317;23;20354;-87
2023/10/30 08:54:43;;;;;;;;;;;;;;;;;;6121319;23;20004;-87
2023/10/30 08:57:09;;;;;;;;;;;;;;;;;;6121737;23;19920;-87
2023/10/30 08:59:38;;;;;;;;;;;;;;;;;;6121852;23;20361;-87
2023/10/30 09:02:05;;;;;;;;;;;;;;;;;;6119599;23;20250;-88
2023/10/30 09:04:31;;;;;;;;;;;;;;;;;;6121014;23;19920;-88
2023/10/30 09:06:57;;;;;;;;;;;;;;;;;;6092891;23;20312;-88
2023/10/30 09:09:23;;;;;;;;;;;;;;;;;;6119422;23;19928;-88
2023/10/30 09:11:49;;;;;;;;;;;;;;;;;;6119488;23;19920;-87
2023/10/30 09:14:15;;;;;;;;;;;;;;;;;;6096749;23;19965;-88
2023/10/30 09:16:41;;;;;;;;;;;;;;;;;;6121111;23;20458;-87
2023/10/30 09:19:07;;;;;;;;;;;;;;;;;;6144850;23;20349;-88
2023/10/30 09:21:33;;;;;;;;;;;;;;;;;;6147162;23;20253;-88
2023/10/30 09:23:59;;;;;;;;;;;;;;;;;;6094470;23;20337;-88
2023/10/30 09:26:25;;;;;;;;;;;;;;;;;;6096126;23;20293;-88
2023/10/30 09:28:52;;;;;;;;;;;;;;;;;;6094719;23;20329;-88
2023/10/30 09:31:18;;;;;;;;;;;;;;;;;;6121394;23;19920;-87
2023/10/30 09:33:44;;;;;;;;;;;;;;;;;;6090031;23;19921;-87
2023/10/30 09:36:10;;;;;;;;;;;;;;;;;;6095472;23;19923;-87
2023/10/30 09:38:36;;;;;;;;;;;;;;;;;;6094530;23;19921;-88
2023/10/30 09:41:02;;;;;;;;;;;;;;;;;;6095603;23;20263;-88
2023/10/30 09:43:29;;;;;;;;;;;;;;;;;;6095887;23;19943;-87
2023/10/30 09:45:55;;;;;;;;;;;;;;;;;;6144594;23;19948;-88
2023/10/30 09:48:21;;;;;;;;;;;;;;;;;;6118439;23;20377;-88
2023/10/30 09:50:47;;;;;;;;;;;;;;;;;;6091520;23;19928;-88
2023/10/30 09:53:13;;;;;;;;;;;;;;;;;;6092728;23;19944;-88
2023/10/30 09:55:39;;;;;;;;;;;;;;;;;;6092944;23;19920;-88
2023/10/30 09:58:04;;;;;;;;;;;;;;;;;;6090002;23;19991;-88
2023/10/30 10:00:30;;;;;;;;;;;;;;;;;;6116884;23;19921;-88
2023/10/30 10:02:57;;;;;;;;;;;;;;;;;;6140484;23;19921;-88
2023/10/30 10:05:23;;;;;;;;;;;;;;;;;;6117699;23;20352;-88
2023/10/30 10:07:49;;;;;;;;;;;;;;;;;;6091031;23;19925;-88
2023/10/30 10:10:18;;;;;;;;;;;;;;;;;;6094792;23;19943;-88
2023/10/30 10:12:44;;;;;;;;;;;;;;;;;;6115098;23;19920;-88
2023/10/30 10:15:10;;;;;;;;;;;;;;;;;;6120155;23;20358;-88
2023/10/30 10:17:36;;;;;;;;;;;;;;;;;;6117045;23;20412;-88
2023/10/30 10:20:03;;;;;;;;;;;;;;;;;;6114335;23;19925;-88
2023/10/30 10:22:29;;;;;;;;;;;;;;;;;;6119031;23;20401;-88
2023/10/30 10:24:55;;;;;;;;;;;;;;;;;;6091234;23;19955;-88
2023/10/30 10:27:21;;;;;;;;;;;;;;;;;;6093484;23;19936;-88
2023/10/30 10:29:47;;;;;;;;;;;;;;;;;;6116609;23;19951;-88
2023/10/30 10:32:14;;;;;;;;;;;;;;;;;;6145988;23;20362;-88
2023/10/30 10:34:40;;;;;;;;;;;;;;;;;;6115730;23;19926;-88
2023/10/30 10:37:06;;;;;;;;;;;;;;;;;;6089746;23;19928;-88
2023/10/30 10:39:32;;;;;;;;;;;;;;;;;;6093570;23;19924;-88
2023/10/30 10:41:58;;;;;;;;;;;;;;;;;;6115267;23;19927;-88
2023/10/30 10:44:24;;;;;;;;;;;;;;;;;;6092673;23;19967;-88
2023/10/30 10:46:52;;;;;;;;;;;;;;;;;;6092728;23;19991;-88
2023/10/30 10:49:17;;;;;;;;;;;;;;;;;;6116770;23;19920;-88
2023/10/30 10:51:43;;;;;;;;;;;;;;;;;;6117163;23;19987;-88
2023/10/30 10:54:09;;;;;;;;;;;;;;;;;;6089222;23;20292;-88
2023/10/30 10:56:35;;;;;;;;;;;;;;;;;;6095084;23;19920;-88
2023/10/30 10:59:03;;;;;;;;;;;;;;;;;;6086334;23;19956;-88
2023/10/30 11:01:29;;;;;;;;;;;;;;;;;;6143750;23;20249;-88
2023/10/30 11:03:55;;;;;;;;;;;;;;;;;;6113710;23;19917;-88
2023/10/30 11:06:21;;;;;;;;;;;;;;;;;;6144318;23;19932;-88
2023/10/30 11:08:47;;;;;;;;;;;;;;;;;;6114877;23;20003;-88
2023/10/30 11:11:13;;;;;;;;;;;;;;;;;;6118473;23;19943;-88
2023/10/30 11:13:39;;;;;;;;;;;;;;;;;;6119105;23;20426;-88
2023/10/30 11:16:05;;;;;;;;;;;;;;;;;;6114497;23;19921;-88
2023/10/30 11:18:31;;;;;;;;;;;;;;;;;;6116833;23;20523;-88
2023/10/30 11:20:57;;;;;;;;;;;;;;;;;;6088091;23;20334;-88
2023/10/30 11:23:23;;;;;;;;;;;;;;;;;;6117755;23;19920;-88
2023/10/30 11:25:54;;;;;;;;;;;;;;;;;;6116890;23;20350;-88
2023/10/30 11:28:20;;;;;;;;;;;;;;;;;;6094182;23;19928;-88
2023/10/30 11:30:46;;;;;;;;;;;;;;;;;;6113899;23;19923;-88
2023/10/30 11:33:15;;;;;;;;;;;;;;;;;;6117702;23;19981;-88
2023/10/30 11:35:45;;;;;;;;;;;;;;;;;;6090655;23;19924;-87
2023/10/30 11:38:11;;;;;;;;;;;;;;;;;;6092631;23;19924;-88
2023/10/30 11:40:37;;;;;;;;;;;;;;;;;;6114643;23;19927;-89
2023/10/30 11:43:03;;;;;;;;;;;;;;;;;;6111889;23;19920;-90
2023/10/30 11:45:30;;;;;;;;;;;;;;;;;;6113723;23;19916;-88
2023/10/30 11:47:56;;;;;;;;;;;;;;;;;;6090144;23;20277;-88
2023/10/30 11:50:22;;;;;;;;;;;;;;;;;;6117800;23;19920;-88
2023/10/30 11:52:48;;;;;;;;;;;;;;;;;;6116839;23;19956;-88
2023/10/30 11:55:14;;;;;;;;;;;;;;;;;;6119790;23;19955;-88
2023/10/30 11:57:40;;;;;;;;;;;;;;;;;;6115992;23;19975;-88
2023/10/30 12:00:06;;;;;;;;;;;;;;;;;;6108846;23;19972;-88
2023/10/30 12:02:32;;;;;;;;;;;;;;;;;;6107440;23;19952;-88
2023/10/30 12:04:59;;;;;;;;;;;;;;;;;;6114033;23;19960;-87
2023/10/30 12:07:34;;;;;;;;;;;;;;;;;;6097186;23;19971;-88
2023/10/30 12:10:03;;;;;;;;;;;;;;;;;;6117438;23;19924;-88
2023/10/30 12:12:29;;;;;;;;;;;;;;;;;;6115681;23;19921;-88
2023/10/30 12:14:55;;;;;;;;;;;;;;;;;;6093718;23;19963;-88
2023/10/30 12:17:21;;;;;;;;;;;;;;;;;;6095471;23;19920;-88
2023/10/30 12:19:47;;;;;;;;;;;;;;;;;;6116074;23;19928;-88
2023/10/30 12:22:13;;;;;;;;;;;;;;;;;;6116682;23;19920;-88
2023/10/30 12:24:39;;;;;;;;;;;;;;;;;;6087115;23;19921;-88
2023/10/30 12:27:05;;;;;;;;;;;;;;;;;;6112310;23;19925;-88
2023/10/30 12:29:32;;;;;;;;;;;;;;;;;;6118250;23;19935;-88
2023/10/30 12:31:58;;;;;;;;;;;;;;;;;;6093101;23;20686;-88
2023/10/30 12:34:24;;;;;;;;;;;;;;;;;;6115920;23;19916;-88
2023/10/30 12:36:50;;;;;;;;;;;;;;;;;;6110307;23;19952;-88
2023/10/30 12:39:16;;;;;;;;;;;;;;;;;;6090261;23;20259;-88
2023/10/30 12:41:42;;;;;;;;;;;;;;;;;;6118309;23;19920;-88
2023/10/30 12:44:08;;;;;;;;;;;;;;;;;;6093488;23;19922;-88
2023/10/30 12:46:34;;;;;;;;;;;;;;;;;;6116944;23;20296;-88
2023/10/30 12:49:00;;;;;;;;;;;;;;;;;;6116638;23;20271;-88
2023/10/30 12:51:26;;;;;;;;;;;;;;;;;;6118720;23;19921;-88
2023/10/30 12:53:53;;;;;;;;;;;;;;;;;;6114153;23;20345;-88
2023/10/30 12:56:22;;;;;;;;;;;;;;;;;;6118084;23;20230;-88
2023/10/30 12:58:48;;;;;;;;;;;;;;;;;;6115624;23;19921;-88
2023/10/30 13:01:14;;;;;;;;;;;;;;;;;;6092581;23;19920;-88
2023/10/30 13:03:39;;;;;;;;;;;;;;;;;;6120076;23;20401;-88
2023/10/30 13:06:05;;;;;;;;;;;;;;;;;;6092585;23;19921;-88
2023/10/30 13:08:31;;;;;;;;;;;;;;;;;;6093439;23;19999;-88
2023/10/30 13:10:57;;;;;;;;;;;;;;;;;;6116912;23;19968;-88
2023/10/30 13:13:23;;;;;;;;;;;;;;;;;;6119826;23;19920;-88
2023/10/30 13:15:49;;;;;;;;;;;;;;;;;;6093158;23;19928;-88
2023/10/30 13:18:16;;;;;;;;;;;;;;;;;;6101162;23;19940;-88
2023/10/30 13:20:42;;;;;;;;;;;;;;;;;;6129784;23;19948;-88
2023/10/30 13:23:08;;;;;;;;;;;;;;;;;;6105969;23;19921;-87
2023/10/30 13:25:34;;;;;;;;;;;;;;;;;;6122141;23;19921;-87
2023/10/30 13:28:00;;;;;;;;;;;;;;;;;;6093520;23;20004;-88
2023/10/30 13:30:26;;;;;;;;;;;;;;;;;;6119449;23;19920;-88
2023/10/30 13:32:52;;;;;;;;;;;;;;;;;;6115892;23;19928;-88
2023/10/30 13:35:18;;;;;;;;;;;;;;;;;;6115861;23;19921;-88
2023/10/30 13:37:44;;;;;;;;;;;;;;;;;;6112146;23;19932;-87
2023/10/30 13:40:12;;;;;;;;;;;;;;;;;;6091497;23;19983;-88
2023/10/30 13:42:39;;;;;;;;;;;;;;;;;;6092064;23;19952;-88
2023/10/30 13:45:05;;;;;;;;;;;;;;;;;;6113749;23;19928;-89
2023/10/30 13:47:30;;;;;;;;;;;;;;;;;;6112200;23;19928;-88
2023/10/30 13:49:57;;;;;;;;;;;;;;;;;;6115561;23;19920;-88
2023/10/30 13:52:23;;;;;;;;;;;;;;;;;;6117864;23;19921;-88
2023/10/30 13:54:52;;;;;;;;;;;;;;;;;;6115444;23;19972;-88
2023/10/30 13:57:18;;;;;;;;;;;;;;;;;;6095129;23;20262;-88
2023/10/30 13:59:44;;;;;;;;;;;;;;;;;;6114064;23;19921;-88
2023/10/30 14:02:11;;;;;;;;;;;;;;;;;;6113513;23;19928;-87
2023/10/30 14:04:37;;;;;;;;;;;;;;;;;;6111501;23;19979;-87
2023/10/30 14:07:03;;;;;;;;;;;;;;;;;;6108530;23;20402;-88
2023/10/30 14:09:29;;;;;;;;;;;;;;;;;;6112483;23;20352;-88
2023/10/30 14:11:55;;;;;;;;;;;;;;;;;;6087874;23;19921;-87
2023/10/30 14:14:24;;;;;;;;;;;;;;;;;;6089018;23;19920;-87
2023/10/30 14:16:51;;;;;;;;;;;;;;;;;;6085541;23;20342;-87
2023/10/30 14:19:17;;;;;;;;;;;;;;;;;;6087562;23;20321;-88
2023/10/30 14:21:44;;;;;;;;;;;;;;;;;;6087210;23;19928;-88
2023/10/30 14:24:10;;;;;;;;;;;;;;;;;;6090414;23;20457;-87
2023/10/30 14:26:37;;;;;;;;;;;;;;;;;;6114950;23;19992;-87
2023/10/30 14:29:03;;;;;;;;;;;;;;;;;;6110497;23;20306;-88
2023/10/30 14:31:29;;;;;;;;;;;;;;;;;;6109898;23;20360;-87
2023/10/30 14:33:55;;;;;;;;;;;;;;;;;;6111938;23;19988;-87
2023/10/30 14:36:24;;;;;;;;;;;;;;;;;;6090897;23;19967;-88
2023/10/30 14:38:50;;;;;;;;;;;;;;;;;;6109114;23;19920;-88
2023/10/30 14:41:15;;;;;;;;;;;;;;;;;;6088891;23;20303;-86
2023/10/30 14:47:35;;;;;;;;;;;;;;;;;;;;;
2023/10/30 14:53:32;;;;;;;;;;;;;;;;;;6024667;23;19934;-88
2023/10/30 14:56:03;;;;;;;;;;;;;;;;;;6047698;23;20004;-88
2023/10/30 15:02:15;;;;;;;;;;;;;;;;;;5946040;24;21032;-88
2023/10/30 15:05:15;;;;;;;;;;;;;;;;;;5934648;24;19958;-88
2023/10/30 15:07:56;;;;;;;;;;;;;;;;;;;;;
2023/10/30 15:10:36;;;;;;;;;;;;;;;;;;5848147;24;19927;-88
2023/10/30 15:13:27;;;;;;;;;;;;;;;;;;5844703;24;19994;-89
2023/10/30 15:18:52;;;;;;;;;;;;;;;;;;5896758;24;20364;-88
2023/10/30 15:24:36;;;;;;;;;;;;;;;;;;5832028;24;19946;-87
2023/10/30 15:27:21;;;;;;;;;;;;;;;;;;5881407;24;19930;-86
2023/10/30 15:29:50;;;;;;;;;;;;;;;;;;5887286;24;20011;-87
2023/10/30 15:32:19;;;;;;;;;;;;;;;;;;5885157;24;19920;-87
2023/10/30 15:34:52;;;;;;;;;;;;;;;;;;5881711;24;19919;-86
2023/10/30 15:37:18;;;;;;;;;;;;;;;;;;5887114;24;19923;-87
2023/10/30 15:39:50;;;;;;;;;;;;;;;;;;5879745;24;19938;-87
2023/10/30 15:42:25;;;;;;;;;;;;;;;;;;5887640;24;19923;-86
2023/10/30 15:45:02;;;;;;;;;;;;;;;;;;;;;
2023/10/30 15:47:59;;;;;;;;;;;;;;;;;;5912038;24;20007;-86
2023/10/30 15:50:32;;;;;;;;;;;;;;;;;;5933430;24;19922;-86
2023/10/30 15:53:20;;;;;;;;;;;;;;;;;;5962744;24;19990;-86
2023/10/30 15:55:52;;;;;;;;;;;;;;;;;;6068638;23;19968;-86
2023/10/30 15:58:20;;;;;;;;;;;;;;;;;;6030731;23;20303;-85
2023/10/30 16:00:55;;;;;;;;;;;;;;;;;;6077027;23;19927;-86
2023/10/30 16:03:52;;;;;;;;;;;;;;;;;;6014488;23;19932;-86
2023/10/30 16:06:37;;;;;;;;;;;;;;;;;;6021496;23;19929;-86
2023/10/30 16:09:12;;;;;;;;;;;;;;;;;;5964952;24;19926;-85
2023/10/30 16:11:53;;;;;;;;;;;;;;;;;;5962712;24;19926;-86
2023/10/30 16:17:50;;;;;;;;;;;;;;;;;;5964335;23;20612;-86
2023/10/30 16:20:27;;;;;;;;;;;;;;;;;;5915457;24;20322;-86
2023/10/30 16:29:09;;;;;;;;;;;;;;;;;;5903080;24;19934;-86
2023/10/30 16:32:03;;;;;;;;;;;;;;;;;;5933643;24;20412;-86
2023/10/30 16:34:47;;;;;;;;;;;;;;;;;;;;;
2023/10/30 16:37:30;;;;;;;;;;;;;;;;;;5928551;23;19950;-86
2023/10/30 16:40:17;;;;;;;;;;;;;;;;;;5987617;23;19996;-86
2023/10/30 16:42:43;;;;;;;;;;;;;;;;;;5996984;23;19922;-86
2023/10/30 16:45:12;;;;;;;;;;;;;;;;;;5997423;23;19964;-86
2023/10/30 16:47:59;;;;;;;;;;;;;;;;;;6021177;23;20107;-86
2023/10/30 16:50:30;;;;;;;;;;;;;;;;;;5979808;23;19922;-86
2023/10/30 16:52:58;;;;;;;;;;;;;;;;;;6051283;23;19916;-86
2023/10/30 16:55:25;;;;;;;;;;;;;;;;;;6090795;23;19980;-86
2023/10/30 16:57:52;;;;;;;;;;;;;;;;;;6090161;23;19935;-86
2023/10/30 17:00:21;;;;;;;;;;;;;;;;;;6113632;23;19933;-86
2023/10/30 17:02:51;;;;;;;;;;;;;;;;;;6089772;23;19927;-86
2023/10/30 17:05:18;;;;;;;;;;;;;;;;;;6088446;23;19967;-86
2023/10/30 17:10:51;;;;;;;;;;;;;;;;;;6055613;23;19920;-86
2023/10/30 17:13:40;;;;;;;;;;;;;;;;;;6047878;23;19921;-86
2023/10/30 17:19:21;;;;;;;;;;;;;;;;;;;;;
2023/10/30 17:25:33;;;;;;;;;;;;;;;;;;5887271;24;19939;-87